sensor_id;sensor_type;location;lat;lon;timestamp;P1;durP1;ratioP1;P2;durP2;ratioP2
12798;SDS011;19250;42.646;26.980;2022-09-24T00:01:38;4.00;;;2.90;;
12798;SDS011;19250;42.646;26.980;2022-09-24T00:04:06;3.13;;;2.88;;
12798;SDS011;19250;42.646;26.980;2022-09-24T00:06:37;5.15;;;3.33;;
12798;SDS011;19250;42.646;26.980;2022-09-24T00:09:06;3.40;;;3.05;;
12798;SDS011;19250;42.646;26.980;2022-09-24T00:11:37;3.10;;;2.90;;
12798;SDS011;19250;42.646;26.980;2022-09-24T00:14:06;3.40;;;3.10;;
12798;SDS011;19250;42.646;26.980;2022-09-24T00:16:33;4.72;;;3.72;;
12798;SDS011;19250;42.646;26.980;2022-09-24T00:19:02;4.32;;;3.83;;
12798;SDS011;19250;42.646;26.980;2022-09-24T00:21:31;5.13;;;4.10;;
12798;SDS011;19250;42.646;26.980;2022-09-24T00:24:02;4.47;;;3.00;;
12798;SDS011;19250;42.646;26.980;2022-09-24T00:26:31;3.50;;;3.10;;
12798;SDS011;19250;42.646;26.980;2022-09-24T00:29:16;3.75;;;3.45;;
12798;SDS011;19250;42.646;26.980;2022-09-24T00:31:47;4.85;;;4.45;;
12798;SDS011;19250;42.646;26.980;2022-09-24T00:34:16;6.15;;;5.55;;
12798;SDS011;19250;42.646;26.980;2022-09-24T00:36:44;5.75;;;5.20;;
12798;SDS011;19250;42.646;26.980;2022-09-24T00:39:14;5.68;;;4.45;;
12798;SDS011;19250;42.646;26.980;2022-09-24T00:41:42;4.67;;;4.27;;
12798;SDS011;19250;42.646;26.980;2022-09-24T00:47:11;3.67;;;3.38;;
12798;SDS011;19250;42.646;26.980;2022-09-24T00:49:50;3.85;;;3.45;;
12798;SDS011;19250;42.646;26.980;2022-09-24T00:52:21;4.22;;;3.78;;
12798;SDS011;19250;42.646;26.980;2022-09-24T00:54:50;3.83;;;3.30;;
12798;SDS011;19250;42.646;26.980;2022-09-24T00:57:19;3.22;;;3.00;;
12798;SDS011;19250;42.646;26.980;2022-09-24T00:59:48;3.40;;;3.10;;
12798;SDS011;19250;42.646;26.980;2022-09-24T01:02:18;3.53;;;2.95;;
12798;SDS011;19250;42.646;26.980;2022-09-24T01:04:45;3.90;;;3.50;;
12798;SDS011;19250;42.646;26.980;2022-09-24T01:07:13;3.70;;;3.40;;
12798;SDS011;19250;42.646;26.980;2022-09-24T01:09:43;3.67;;;3.38;;
12798;SDS011;19250;42.646;26.980;2022-09-24T01:12:13;3.50;;;3.20;;
12798;SDS011;19250;42.646;26.980;2022-09-24T01:14:57;3.27;;;2.97;;
12798;SDS011;19250;42.646;26.980;2022-09-24T01:17:38;3.40;;;3.10;;
12798;SDS011;19250;42.646;26.980;2022-09-24T01:23:22;3.25;;;2.90;;
12798;SDS011;19250;42.646;26.980;2022-09-24T01:26:14;3.70;;;3.40;;
12798;SDS011;19250;42.646;26.980;2022-09-24T01:31:50;4.70;;;4.30;;
12798;SDS011;19250;42.646;26.980;2022-09-24T01:34:27;4.55;;;4.13;;
12798;SDS011;19250;42.646;26.980;2022-09-24T01:36:58;5.00;;;4.60;;
12798;SDS011;19250;42.646;26.980;2022-09-24T01:39:27;5.43;;;4.93;;
12798;SDS011;19250;42.646;26.980;2022-09-24T01:41:57;5.50;;;5.00;;
12798;SDS011;19250;42.646;26.980;2022-09-24T01:44:27;6.05;;;5.50;;
12798;SDS011;19250;42.646;26.980;2022-09-24T01:46:55;6.03;;;5.45;;
12798;SDS011;19250;42.646;26.980;2022-09-24T01:49:23;5.97;;;5.47;;
12798;SDS011;19250;42.646;26.980;2022-09-24T01:51:53;6.20;;;5.70;;
12798;SDS011;19250;42.646;26.980;2022-09-24T01:54:26;5.95;;;5.45;;
12798;SDS011;19250;42.646;26.980;2022-09-24T01:57:00;7.00;;;5.20;;
12798;SDS011;19250;42.646;26.980;2022-09-24T01:59:35;5.80;;;5.20;;
12798;SDS011;19250;42.646;26.980;2022-09-24T02:02:10;5.32;;;4.90;;
12798;SDS011;19250;42.646;26.980;2022-09-24T02:04:45;6.18;;;5.65;;
12798;SDS011;19250;42.646;26.980;2022-09-24T02:07:17;6.30;;;5.78;;
12798;SDS011;19250;42.646;26.980;2022-09-24T02:09:49;6.28;;;5.78;;
12798;SDS011;19250;42.646;26.980;2022-09-24T02:12:18;5.10;;;4.70;;
12798;SDS011;19250;42.646;26.980;2022-09-24T02:14:56;4.72;;;4.32;;
12798;SDS011;19250;42.646;26.980;2022-09-24T02:17:27;4.72;;;4.22;;
12798;SDS011;19250;42.646;26.980;2022-09-24T02:19:59;4.10;;;3.80;;
12798;SDS011;19250;42.646;26.980;2022-09-24T02:22:28;4.38;;;3.60;;
12798;SDS011;19250;42.646;26.980;2022-09-24T02:25:00;3.67;;;3.38;;
12798;SDS011;19250;42.646;26.980;2022-09-24T02:27:31;4.63;;;3.90;;
12798;SDS011;19250;42.646;26.980;2022-09-24T02:30:01;4.28;;;3.97;;
12798;SDS011;19250;42.646;26.980;2022-09-24T02:32:29;4.40;;;4.00;;
12798;SDS011;19250;42.646;26.980;2022-09-24T02:35:00;4.38;;;3.83;;
12798;SDS011;19250;42.646;26.980;2022-09-24T02:37:33;4.82;;;4.35;;
12798;SDS011;19250;42.646;26.980;2022-09-24T02:40:02;5.20;;;4.70;;
12798;SDS011;19250;42.646;26.980;2022-09-24T02:42:31;6.43;;;5.30;;
12798;SDS011;19250;42.646;26.980;2022-09-24T02:44:58;6.37;;;5.77;;
12798;SDS011;19250;42.646;26.980;2022-09-24T02:47:28;6.60;;;6.00;;
12798;SDS011;19250;42.646;26.980;2022-09-24T02:49:55;8.23;;;7.35;;
12798;SDS011;19250;42.646;26.980;2022-09-24T02:52:22;11.15;;;8.90;;
12798;SDS011;19250;42.646;26.980;2022-09-24T02:54:49;11.13;;;8.90;;
12798;SDS011;19250;42.646;26.980;2022-09-24T02:57:17;9.52;;;7.82;;
12798;SDS011;19250;42.646;26.980;2022-09-24T02:59:45;12.23;;;9.45;;
12798;SDS011;19250;42.646;26.980;2022-09-24T03:02:12;8.75;;;7.60;;
12798;SDS011;19250;42.646;26.980;2022-09-24T03:04:42;8.80;;;7.53;;
12798;SDS011;19250;42.646;26.980;2022-09-24T03:07:09;10.32;;;8.13;;
12798;SDS011;19250;42.646;26.980;2022-09-24T03:09:38;9.30;;;8.10;;
12798;SDS011;19250;42.646;26.980;2022-09-24T03:12:09;8.88;;;7.93;;
12798;SDS011;19250;42.646;26.980;2022-09-24T03:14:38;9.68;;;8.02;;
12798;SDS011;19250;42.646;26.980;2022-09-24T03:17:05;9.98;;;8.35;;
12798;SDS011;19250;42.646;26.980;2022-09-24T03:19:33;10.10;;;8.20;;
12798;SDS011;19250;42.646;26.980;2022-09-24T03:22:01;9.43;;;7.53;;
12798;SDS011;19250;42.646;26.980;2022-09-24T03:24:29;15.77;;;14.38;;
12798;SDS011;19250;42.646;26.980;2022-09-24T03:26:56;8.98;;;8.10;;
12798;SDS011;19250;42.646;26.980;2022-09-24T03:29:24;12.68;;;11.48;;
12798;SDS011;19250;42.646;26.980;2022-09-24T03:32:05;9.88;;;8.98;;
12798;SDS011;19250;42.646;26.980;2022-09-24T03:34:32;10.07;;;9.07;;
12798;SDS011;19250;42.646;26.980;2022-09-24T03:36:59;10.07;;;9.18;;
12798;SDS011;19250;42.646;26.980;2022-09-24T03:39:28;12.57;;;11.38;;
12798;SDS011;19250;42.646;26.980;2022-09-24T03:41:56;11.50;;;10.07;;
12798;SDS011;19250;42.646;26.980;2022-09-24T03:44:23;8.07;;;7.28;;
12798;SDS011;19250;42.646;26.980;2022-09-24T03:46:53;7.53;;;6.75;;
12798;SDS011;19250;42.646;26.980;2022-09-24T03:49:21;10.00;;;6.10;;
12798;SDS011;19250;42.646;26.980;2022-09-24T03:51:48;8.00;;;6.53;;
12798;SDS011;19250;42.646;26.980;2022-09-24T03:54:17;8.68;;;6.93;;
12798;SDS011;19250;42.646;26.980;2022-09-24T03:56:45;7.95;;;6.20;;
12798;SDS011;19250;42.646;26.980;2022-09-24T04:05:56;14.17;;;12.33;;
12798;SDS011;19250;42.646;26.980;2022-09-24T04:25:13;11.23;;;7.95;;
12798;SDS011;19250;42.646;26.980;2022-09-24T04:27:41;8.32;;;7.38;;
12798;SDS011;19250;42.646;26.980;2022-09-24T04:30:09;9.65;;;7.68;;
12798;SDS011;19250;42.646;26.980;2022-09-24T04:32:43;10.15;;;7.70;;
12798;SDS011;19250;42.646;26.980;2022-09-24T04:35:10;7.73;;;6.37;;
12798;SDS011;19250;42.646;26.980;2022-09-24T04:37:38;6.95;;;5.53;;
12798;SDS011;19250;42.646;26.980;2022-09-24T04:40:05;9.18;;;5.47;;
12798;SDS011;19250;42.646;26.980;2022-09-24T04:42:38;7.63;;;6.50;;
12798;SDS011;19250;42.646;26.980;2022-09-24T04:45:06;8.18;;;5.95;;
12798;SDS011;19250;42.646;26.980;2022-09-24T04:47:35;7.68;;;5.70;;
12798;SDS011;19250;42.646;26.980;2022-09-24T04:50:05;8.27;;;5.97;;
12798;SDS011;19250;42.646;26.980;2022-09-24T04:52:34;9.18;;;5.60;;
12798;SDS011;19250;42.646;26.980;2022-09-24T04:55:01;8.25;;;6.00;;
12798;SDS011;19250;42.646;26.980;2022-09-24T04:57:29;8.10;;;6.53;;
12798;SDS011;19250;42.646;26.980;2022-09-24T05:00:02;11.57;;;7.80;;
12798;SDS011;19250;42.646;26.980;2022-09-24T05:09:12;6.15;;;5.10;;
12798;SDS011;19250;42.646;26.980;2022-09-24T05:11:39;7.63;;;5.80;;
12798;SDS011;19250;42.646;26.980;2022-09-24T05:14:07;7.22;;;5.15;;
12798;SDS011;19250;42.646;26.980;2022-09-24T05:16:36;8.35;;;5.15;;
12798;SDS011;19250;42.646;26.980;2022-09-24T05:19:03;7.30;;;5.30;;
12798;SDS011;19250;42.646;26.980;2022-09-24T05:21:30;6.25;;;4.75;;
12798;SDS011;19250;42.646;26.980;2022-09-24T05:23:58;5.60;;;4.65;;
12798;SDS011;19250;42.646;26.980;2022-09-24T05:26:25;5.03;;;3.97;;
12798;SDS011;19250;42.646;26.980;2022-09-24T05:29:09;5.30;;;4.38;;
12798;SDS011;19250;42.646;26.980;2022-09-24T05:31:38;6.03;;;4.40;;
12798;SDS011;19250;42.646;26.980;2022-09-24T05:34:06;5.82;;;4.45;;
12798;SDS011;19250;42.646;26.980;2022-09-24T05:36:33;5.10;;;4.20;;
12798;SDS011;19250;42.646;26.980;2022-09-24T05:39:00;5.03;;;3.90;;
12798;SDS011;19250;42.646;26.980;2022-09-24T05:41:28;3.70;;;3.40;;
12798;SDS011;19250;42.646;26.980;2022-09-24T05:43:55;4.93;;;4.43;;
12798;SDS011;19250;42.646;26.980;2022-09-24T05:46:23;6.07;;;4.30;;
12798;SDS011;19250;42.646;26.980;2022-09-24T05:48:52;4.70;;;4.30;;
12798;SDS011;19250;42.646;26.980;2022-09-24T05:51:20;4.70;;;4.22;;
12798;SDS011;19250;42.646;26.980;2022-09-24T05:53:47;5.05;;;4.43;;
12798;SDS011;19250;42.646;26.980;2022-09-24T05:56:15;3.97;;;3.57;;
12798;SDS011;19250;42.646;26.980;2022-09-24T05:58:43;4.15;;;3.75;;
12798;SDS011;19250;42.646;26.980;2022-09-24T06:01:10;4.65;;;4.25;;
12798;SDS011;19250;42.646;26.980;2022-09-24T06:03:37;5.15;;;4.03;;
12798;SDS011;19250;42.646;26.980;2022-09-24T06:06:06;4.10;;;3.47;;
12798;SDS011;19250;42.646;26.980;2022-09-24T06:08:34;3.95;;;3.50;;
12798;SDS011;19250;42.646;26.980;2022-09-24T06:11:06;4.38;;;3.53;;
12798;SDS011;19250;42.646;26.980;2022-09-24T06:13:35;4.07;;;3.20;;
12798;SDS011;19250;42.646;26.980;2022-09-24T06:16:06;4.53;;;4.13;;
12798;SDS011;19250;42.646;26.980;2022-09-24T06:18:34;5.70;;;4.97;;
12798;SDS011;19250;42.646;26.980;2022-09-24T06:21:06;6.20;;;4.70;;
12798;SDS011;19250;42.646;26.980;2022-09-24T06:23:37;4.00;;;3.70;;
12798;SDS011;19250;42.646;26.980;2022-09-24T06:26:05;4.80;;;3.00;;
12798;SDS011;19250;42.646;26.980;2022-09-24T06:28:38;3.67;;;3.38;;
12798;SDS011;19250;42.646;26.980;2022-09-24T06:31:06;6.43;;;4.47;;
12798;SDS011;19250;42.646;26.980;2022-09-24T06:33:36;4.47;;;3.85;;
12798;SDS011;19250;42.646;26.980;2022-09-24T06:36:06;5.10;;;4.40;;
12798;SDS011;19250;42.646;26.980;2022-09-24T06:38:34;5.97;;;3.67;;
12798;SDS011;19250;42.646;26.980;2022-09-24T06:41:06;5.82;;;3.00;;
12798;SDS011;19250;42.646;26.980;2022-09-24T06:43:36;2.97;;;2.70;;
12798;SDS011;19250;42.646;26.980;2022-09-24T06:46:04;3.23;;;2.93;;
12798;SDS011;19250;42.646;26.980;2022-09-24T06:48:34;2.70;;;2.50;;
12798;SDS011;19250;42.646;26.980;2022-09-24T06:51:07;3.58;;;2.40;;
12798;SDS011;19250;42.646;26.980;2022-09-24T06:53:37;3.38;;;2.47;;
12798;SDS011;19250;42.646;26.980;2022-09-24T06:56:05;2.63;;;2.42;;
12798;SDS011;19250;42.646;26.980;2022-09-24T06:58:34;2.63;;;2.42;;
12798;SDS011;19250;42.646;26.980;2022-09-24T07:01:01;3.42;;;2.92;;
12798;SDS011;19250;42.646;26.980;2022-09-24T07:03:30;3.35;;;2.63;;
12798;SDS011;19250;42.646;26.980;2022-09-24T07:05:59;3.35;;;2.60;;
12798;SDS011;19250;42.646;26.980;2022-09-24T07:08:30;2.83;;;2.60;;
12798;SDS011;19250;42.646;26.980;2022-09-24T07:10:58;3.20;;;2.60;;
12798;SDS011;19250;42.646;26.980;2022-09-24T07:13:28;3.55;;;2.92;;
12798;SDS011;19250;42.646;26.980;2022-09-24T07:15:55;3.00;;;2.50;;
12798;SDS011;19250;42.646;26.980;2022-09-24T07:18:25;2.50;;;2.30;;
12798;SDS011;19250;42.646;26.980;2022-09-24T07:20:58;3.38;;;2.40;;
12798;SDS011;19250;42.646;26.980;2022-09-24T07:23:42;2.80;;;2.50;;
12798;SDS011;19250;42.646;26.980;2022-09-24T07:26:10;2.90;;;2.60;;
12798;SDS011;19250;42.646;26.980;2022-09-24T07:28:40;3.03;;;2.28;;
12798;SDS011;19250;42.646;26.980;2022-09-24T07:31:10;2.70;;;2.40;;
12798;SDS011;19250;42.646;26.980;2022-09-24T07:33:38;2.35;;;2.10;;
12798;SDS011;19250;42.646;26.980;2022-09-24T07:36:08;3.08;;;2.33;;
12798;SDS011;19250;42.646;26.980;2022-09-24T07:38:36;2.50;;;2.13;;
12798;SDS011;19250;42.646;26.980;2022-09-24T07:41:12;2.80;;;2.17;;
12798;SDS011;19250;42.646;26.980;2022-09-24T07:43:44;3.45;;;2.40;;
12798;SDS011;19250;42.646;26.980;2022-09-24T07:46:14;2.72;;;2.28;;
12798;SDS011;19250;42.646;26.980;2022-09-24T07:48:43;4.57;;;2.47;;
12798;SDS011;19250;42.646;26.980;2022-09-24T07:51:13;3.67;;;3.17;;
12798;SDS011;19250;42.646;26.980;2022-09-24T07:53:41;3.20;;;2.73;;
12798;SDS011;19250;42.646;26.980;2022-09-24T07:56:10;3.20;;;2.90;;
12798;SDS011;19250;42.646;26.980;2022-09-24T07:58:37;3.47;;;3.17;;
12798;SDS011;19250;42.646;26.980;2022-09-24T08:01:05;4.22;;;2.78;;
12798;SDS011;19250;42.646;26.980;2022-09-24T08:03:32;3.13;;;2.72;;
12798;SDS011;19250;42.646;26.980;2022-09-24T08:06:00;2.63;;;2.40;;
12798;SDS011;19250;42.646;26.980;2022-09-24T08:08:32;3.53;;;2.63;;
12798;SDS011;19250;42.646;26.980;2022-09-24T08:11:01;3.53;;;2.95;;
12798;SDS011;19250;42.646;26.980;2022-09-24T08:13:31;3.75;;;3.22;;
12798;SDS011;19250;42.646;26.980;2022-09-24T08:16:02;2.88;;;2.67;;
12798;SDS011;19250;42.646;26.980;2022-09-24T08:18:30;3.03;;;2.67;;
12798;SDS011;19250;42.646;26.980;2022-09-24T08:21:02;2.55;;;2.35;;
12798;SDS011;19250;42.646;26.980;2022-09-24T08:23:30;2.60;;;2.40;;
12798;SDS011;19250;42.646;26.980;2022-09-24T08:25:58;2.78;;;2.50;;
12798;SDS011;19250;42.646;26.980;2022-09-24T08:28:26;2.50;;;2.30;;
12798;SDS011;19250;42.646;26.980;2022-09-24T08:30:57;4.82;;;2.22;;
12798;SDS011;19250;42.646;26.980;2022-09-24T08:33:25;3.70;;;2.20;;
12798;SDS011;19250;42.646;26.980;2022-09-24T08:35:58;4.10;;;2.15;;
12798;SDS011;19250;42.646;26.980;2022-09-24T08:38:26;2.95;;;2.63;;
12798;SDS011;19250;42.646;26.980;2022-09-24T08:40:55;3.53;;;2.50;;
12798;SDS011;19250;42.646;26.980;2022-09-24T08:43:29;3.22;;;2.58;;
12798;SDS011;19250;42.646;26.980;2022-09-24T08:46:10;3.40;;;2.40;;
12798;SDS011;19250;42.646;26.980;2022-09-24T08:48:57;4.88;;;2.72;;
12798;SDS011;19250;42.646;26.980;2022-09-24T08:51:30;4.37;;;2.97;;
12798;SDS011;19250;42.646;26.980;2022-09-24T08:54:02;2.67;;;2.30;;
12798;SDS011;19250;42.646;26.980;2022-09-24T08:56:34;2.50;;;2.30;;
12798;SDS011;19250;42.646;26.980;2022-09-24T08:59:09;2.30;;;2.10;;
12798;SDS011;19250;42.646;26.980;2022-09-24T09:01:49;2.47;;;2.22;;
12798;SDS011;19250;42.646;26.980;2022-09-24T09:04:23;2.40;;;2.20;;
12798;SDS011;19250;42.646;26.980;2022-09-24T09:07:06;2.85;;;1.98;;
12798;SDS011;19250;42.646;26.980;2022-09-24T09:09:42;2.35;;;2.05;;
12798;SDS011;19250;42.646;26.980;2022-09-24T09:12:14;2.42;;;2.10;;
12798;SDS011;19250;42.646;26.980;2022-09-24T09:14:48;2.47;;;2.10;;
12798;SDS011;19250;42.646;26.980;2022-09-24T09:17:25;3.20;;;2.10;;
12798;SDS011;19250;42.646;26.980;2022-09-24T09:19:58;2.87;;;2.57;;
12798;SDS011;19250;42.646;26.980;2022-09-24T09:22:29;2.85;;;2.25;;
12798;SDS011;19250;42.646;26.980;2022-09-24T09:25:02;1.80;;;1.70;;
12798;SDS011;19250;42.646;26.980;2022-09-24T09:27:38;3.67;;;2.40;;
12798;SDS011;19250;42.646;26.980;2022-09-24T09:30:06;3.30;;;2.58;;
12798;SDS011;19250;42.646;26.980;2022-09-24T09:32:44;2.47;;;2.27;;
12798;SDS011;19250;42.646;26.980;2022-09-24T09:35:23;2.22;;;2.03;;
12798;SDS011;19250;42.646;26.980;2022-09-24T09:37:56;2.40;;;2.20;;
12798;SDS011;19250;42.646;26.980;2022-09-24T09:40:34;2.63;;;2.28;;
12798;SDS011;19250;42.646;26.980;2022-09-24T09:43:07;2.72;;;2.33;;
12798;SDS011;19250;42.646;26.980;2022-09-24T09:45:37;3.17;;;2.00;;
12798;SDS011;19250;42.646;26.980;2022-09-24T09:48:13;3.03;;;2.10;;
12798;SDS011;19250;42.646;26.980;2022-09-24T09:50:45;2.37;;;2.17;;
12798;SDS011;19250;42.646;26.980;2022-09-24T09:53:21;3.38;;;2.25;;
12798;SDS011;19250;42.646;26.980;2022-09-24T09:55:50;2.38;;;2.17;;
12798;SDS011;19250;42.646;26.980;2022-09-24T09:58:28;2.33;;;2.10;;
12798;SDS011;19250;42.646;26.980;2022-09-24T10:01:03;2.50;;;2.30;;
12798;SDS011;19250;42.646;26.980;2022-09-24T10:03:45;2.65;;;2.40;;
12798;SDS011;19250;42.646;26.980;2022-09-24T10:06:21;2.30;;;2.10;;
12798;SDS011;19250;42.646;26.980;2022-09-24T10:08:50;2.58;;;2.20;;
12798;SDS011;19250;42.646;26.980;2022-09-24T10:11:21;2.20;;;2.00;;
12798;SDS011;19250;42.646;26.980;2022-09-24T10:14:00;2.80;;;2.00;;
12798;SDS011;19250;42.646;26.980;2022-09-24T10:16:27;2.28;;;2.08;;
12798;SDS011;19250;42.646;26.980;2022-09-24T10:19:03;2.30;;;2.20;;
12798;SDS011;19250;42.646;26.980;2022-09-24T10:21:41;2.00;;;1.90;;
12798;SDS011;19250;42.646;26.980;2022-09-24T10:24:11;3.75;;;2.20;;
12798;SDS011;19250;42.646;26.980;2022-09-24T10:26:42;2.97;;;2.10;;
12798;SDS011;19250;42.646;26.980;2022-09-24T10:29:11;3.40;;;1.90;;
12798;SDS011;19250;42.646;26.980;2022-09-24T10:31:57;2.55;;;2.00;;
12798;SDS011;19250;42.646;26.980;2022-09-24T10:34:27;3.60;;;2.13;;
12798;SDS011;19250;42.646;26.980;2022-09-24T10:36:58;2.72;;;2.03;;
12798;SDS011;19250;42.646;26.980;2022-09-24T10:39:27;2.13;;;2.00;;
12798;SDS011;19250;42.646;26.980;2022-09-24T10:42:01;2.30;;;2.10;;
12798;SDS011;19250;42.646;26.980;2022-09-24T10:44:33;3.40;;;2.20;;
12798;SDS011;19250;42.646;26.980;2022-09-24T10:47:07;2.40;;;2.20;;
12798;SDS011;19250;42.646;26.980;2022-09-24T10:49:51;3.20;;;2.33;;
12798;SDS011;19250;42.646;26.980;2022-09-24T10:52:37;1.98;;;1.88;;
12798;SDS011;19250;42.646;26.980;2022-09-24T10:55:15;7.80;;;2.33;;
12798;SDS011;19250;42.646;26.980;2022-09-24T10:57:56;3.70;;;1.90;;
12798;SDS011;19250;42.646;26.980;2022-09-24T11:00:30;2.58;;;2.00;;
12798;SDS011;19250;42.646;26.980;2022-09-24T11:06:03;20.50;;;3.80;;
12798;SDS011;19250;42.646;26.980;2022-09-24T11:08:55;2.35;;;2.15;;
12798;SDS011;19250;42.646;26.980;2022-09-24T11:11:34;3.35;;;2.33;;
12798;SDS011;19250;42.646;26.980;2022-09-24T11:14:15;4.57;;;3.10;;
12798;SDS011;19250;42.646;26.980;2022-09-24T11:20:01;3.35;;;2.00;;
12798;SDS011;19250;42.646;26.980;2022-09-24T11:22:45;3.10;;;2.33;;
12798;SDS011;19250;42.646;26.980;2022-09-24T11:25:30;1.83;;;1.73;;
12798;SDS011;19250;42.646;26.980;2022-09-24T11:28:09;2.80;;;2.53;;
12798;SDS011;19250;42.646;26.980;2022-09-24T11:30:53;2.28;;;2.08;;
12798;SDS011;19250;42.646;26.980;2022-09-24T11:33:32;2.50;;;2.30;;
12798;SDS011;19250;42.646;26.980;2022-09-24T11:36:19;2.22;;;2.08;;
12798;SDS011;19250;42.646;26.980;2022-09-24T11:39:03;2.83;;;2.53;;
12798;SDS011;19250;42.646;26.980;2022-09-24T11:41:51;2.88;;;2.65;;
12798;SDS011;19250;42.646;26.980;2022-09-24T11:47:35;2.15;;;2.00;;
12798;SDS011;19250;42.646;26.980;2022-09-24T11:50:19;2.20;;;2.00;;
12798;SDS011;19250;42.646;26.980;2022-09-24T11:52:59;2.07;;;1.97;;
12798;SDS011;19250;42.646;26.980;2022-09-24T11:55:40;2.20;;;2.00;;
12798;SDS011;19250;42.646;26.980;2022-09-24T11:58:14;2.80;;;2.53;;
12798;SDS011;19250;42.646;26.980;2022-09-24T12:00:48;3.05;;;2.13;;
12798;SDS011;19250;42.646;26.980;2022-09-24T12:03:21;2.03;;;1.90;;
12798;SDS011;19250;42.646;26.980;2022-09-24T12:05:56;2.60;;;2.40;;
12798;SDS011;19250;42.646;26.980;2022-09-24T12:08:31;2.60;;;2.40;;
12798;SDS011;19250;42.646;26.980;2022-09-24T12:11:07;2.28;;;2.08;;
12798;SDS011;19250;42.646;26.980;2022-09-24T12:13:41;2.17;;;1.90;;
12798;SDS011;19250;42.646;26.980;2022-09-24T12:16:14;2.72;;;2.38;;
12798;SDS011;19250;42.646;26.980;2022-09-24T12:18:46;2.17;;;2.05;;
12798;SDS011;19250;42.646;26.980;2022-09-24T12:21:19;2.60;;;2.10;;
12798;SDS011;19250;42.646;26.980;2022-09-24T12:23:52;2.47;;;2.28;;
12798;SDS011;19250;42.646;26.980;2022-09-24T12:26:26;2.10;;;2.00;;
12798;SDS011;19250;42.646;26.980;2022-09-24T12:28:57;2.30;;;2.10;;
12798;SDS011;19250;42.646;26.980;2022-09-24T12:31:48;2.20;;;2.00;;
12798;SDS011;19250;42.646;26.980;2022-09-24T12:34:46;2.20;;;2.00;;
12798;SDS011;19250;42.646;26.980;2022-09-24T12:37:21;2.00;;;1.90;;
12798;SDS011;19250;42.646;26.980;2022-09-24T12:39:52;2.10;;;1.85;;
12798;SDS011;19250;42.646;26.980;2022-09-24T12:42:27;1.90;;;1.80;;
12798;SDS011;19250;42.646;26.980;2022-09-24T12:45:00;2.17;;;2.08;;
12798;SDS011;19250;42.646;26.980;2022-09-24T12:47:31;2.35;;;2.15;;
12798;SDS011;19250;42.646;26.980;2022-09-24T12:50:18;3.03;;;2.00;;
12798;SDS011;19250;42.646;26.980;2022-09-24T12:52:47;2.53;;;2.33;;
12798;SDS011;19250;42.646;26.980;2022-09-24T12:55:17;2.03;;;1.90;;
12798;SDS011;19250;42.646;26.980;2022-09-24T12:57:50;2.08;;;1.83;;
12798;SDS011;19250;42.646;26.980;2022-09-24T13:00:34;2.00;;;1.80;;
12798;SDS011;19250;42.646;26.980;2022-09-24T13:03:05;1.73;;;1.63;;
12798;SDS011;19250;42.646;26.980;2022-09-24T13:05:53;2.72;;;2.10;;
12798;SDS011;19250;42.646;26.980;2022-09-24T13:08:25;2.38;;;2.17;;
12798;SDS011;19250;42.646;26.980;2022-09-24T13:11:01;2.15;;;2.00;;
12798;SDS011;19250;42.646;26.980;2022-09-24T13:13:34;2.30;;;2.10;;
12798;SDS011;19250;42.646;26.980;2022-09-24T13:16:15;2.25;;;2.03;;
12798;SDS011;19250;42.646;26.980;2022-09-24T13:18:49;2.10;;;1.90;;
12798;SDS011;19250;42.646;26.980;2022-09-24T13:21:19;2.10;;;1.93;;
12798;SDS011;19250;42.646;26.980;2022-09-24T13:23:49;2.63;;;1.97;;
12798;SDS011;19250;42.646;26.980;2022-09-24T13:26:30;2.25;;;2.05;;
12798;SDS011;19250;42.646;26.980;2022-09-24T13:29:03;2.15;;;1.98;;
12798;SDS011;19250;42.646;26.980;2022-09-24T13:31:34;2.00;;;1.90;;
12798;SDS011;19250;42.646;26.980;2022-09-24T13:34:17;2.35;;;2.15;;
12798;SDS011;19250;42.646;26.980;2022-09-24T13:36:51;3.10;;;2.20;;
12798;SDS011;19250;42.646;26.980;2022-09-24T13:39:23;2.17;;;2.08;;
12798;SDS011;19250;42.646;26.980;2022-09-24T13:41:58;2.20;;;2.00;;
12798;SDS011;19250;42.646;26.980;2022-09-24T13:44:33;2.20;;;2.00;;
12798;SDS011;19250;42.646;26.980;2022-09-24T13:47:04;2.15;;;2.00;;
12798;SDS011;19250;42.646;26.980;2022-09-24T13:49:38;2.50;;;2.20;;
12798;SDS011;19250;42.646;26.980;2022-09-24T13:52:12;2.95;;;2.20;;
12798;SDS011;19250;42.646;26.980;2022-09-24T13:54:51;2.20;;;2.10;;
12798;SDS011;19250;42.646;26.980;2022-09-24T13:57:24;2.10;;;1.90;;
12798;SDS011;19250;42.646;26.980;2022-09-24T14:03:03;1.90;;;1.80;;
12798;SDS011;19250;42.646;26.980;2022-09-24T14:05:44;2.30;;;2.10;;
12798;SDS011;19250;42.646;26.980;2022-09-24T14:08:12;3.50;;;1.90;;
12798;SDS011;19250;42.646;26.980;2022-09-24T14:10:41;2.10;;;2.00;;
12798;SDS011;19250;42.646;26.980;2022-09-24T14:13:14;2.33;;;2.00;;
12798;SDS011;19250;42.646;26.980;2022-09-24T14:15:54;2.47;;;2.10;;
12798;SDS011;19250;42.646;26.980;2022-09-24T14:18:25;2.58;;;1.98;;
12798;SDS011;19250;42.646;26.980;2022-09-24T14:20:56;2.50;;;1.97;;
12798;SDS011;19250;42.646;26.980;2022-09-24T14:23:30;1.90;;;1.80;;
12798;SDS011;19250;42.646;26.980;2022-09-24T14:26:03;2.42;;;1.80;;
12798;SDS011;19250;42.646;26.980;2022-09-24T14:28:31;2.10;;;2.00;;
12798;SDS011;19250;42.646;26.980;2022-09-24T14:31:01;2.30;;;2.13;;
12798;SDS011;19250;42.646;26.980;2022-09-24T14:33:43;2.63;;;2.10;;
12798;SDS011;19250;42.646;26.980;2022-09-24T14:36:11;2.33;;;2.05;;
12798;SDS011;19250;42.646;26.980;2022-09-24T14:38:46;2.17;;;1.88;;
12798;SDS011;19250;42.646;26.980;2022-09-24T14:41:26;3.47;;;2.50;;
12798;SDS011;19250;42.646;26.980;2022-09-24T14:43:57;2.33;;;2.15;;
12798;SDS011;19250;42.646;26.980;2022-09-24T14:46:33;2.73;;;2.10;;
12798;SDS011;19250;42.646;26.980;2022-09-24T14:49:16;2.00;;;1.90;;
12798;SDS011;19250;42.646;26.980;2022-09-24T14:51:52;1.88;;;1.75;;
12798;SDS011;19250;42.646;26.980;2022-09-24T14:54:26;1.73;;;1.63;;
12798;SDS011;19250;42.646;26.980;2022-09-24T14:57:10;2.55;;;2.00;;
12798;SDS011;19250;42.646;26.980;2022-09-24T14:59:48;3.22;;;2.42;;
12798;SDS011;19250;42.646;26.980;2022-09-24T15:02:19;3.23;;;2.50;;
12798;SDS011;19250;42.646;26.980;2022-09-24T15:04:50;3.60;;;2.80;;
12798;SDS011;19250;42.646;26.980;2022-09-24T15:07:21;3.78;;;2.22;;
12798;SDS011;19250;42.646;26.980;2022-09-24T15:09:52;4.35;;;2.72;;
12798;SDS011;19250;42.646;26.980;2022-09-24T15:12:27;3.78;;;3.13;;
12798;SDS011;19250;42.646;26.980;2022-09-24T15:14:57;4.13;;;3.13;;
12798;SDS011;19250;42.646;26.980;2022-09-24T15:17:29;5.13;;;3.10;;
12798;SDS011;19250;42.646;26.980;2022-09-24T15:19:58;3.38;;;2.80;;
12798;SDS011;19250;42.646;26.980;2022-09-24T15:22:26;3.50;;;2.20;;
12798;SDS011;19250;42.646;26.980;2022-09-24T15:24:57;3.38;;;2.50;;
12798;SDS011;19250;42.646;26.980;2022-09-24T15:27:25;3.85;;;2.30;;
12798;SDS011;19250;42.646;26.980;2022-09-24T15:29:54;4.63;;;3.08;;
12798;SDS011;19250;42.646;26.980;2022-09-24T15:32:24;4.45;;;3.50;;
12798;SDS011;19250;42.646;26.980;2022-09-24T15:34:54;6.40;;;4.63;;
12798;SDS011;19250;42.646;26.980;2022-09-24T15:37:23;7.90;;;6.05;;
12798;SDS011;19250;42.646;26.980;2022-09-24T15:39:52;9.82;;;8.80;;
12798;SDS011;19250;42.646;26.980;2022-09-24T15:42:24;8.00;;;6.73;;
12798;SDS011;19250;42.646;26.980;2022-09-24T15:44:52;8.68;;;5.82;;
12798;SDS011;19250;42.646;26.980;2022-09-24T15:47:19;8.45;;;5.90;;
12798;SDS011;19250;42.646;26.980;2022-09-24T15:49:47;7.77;;;5.63;;
12798;SDS011;19250;42.646;26.980;2022-09-24T15:52:17;7.40;;;5.18;;
12798;SDS011;19250;42.646;26.980;2022-09-24T15:54:49;8.10;;;6.37;;